createdAt,value
2023-02-12T00:01:25.240Z,30.10
2023-02-12T00:06:30.577Z,30.40
2023-02-12T00:11:38.547Z,30.97
2023-02-12T00:16:44.185Z,31.47
2023-02-12T00:21:49.307Z,31.40
2023-02-12T00:26:56.970Z,30.47
2023-02-12T00:32:02.172Z,31.73
2023-02-12T00:37:07.106Z,32.57
2023-02-12T00:42:15.049Z,33.60
2023-02-12T00:47:20.367Z,33.20
2023-02-12T00:52:28.531Z,31.07
2023-02-12T00:57:36.303Z,33.20
2023-02-12T01:02:44.475Z,32.83
2023-02-12T01:07:53.179Z,32.10
2023-02-12T01:13:02.482Z,30.27
2023-02-12T01:18:08.472Z,31.97
2023-02-12T01:23:14.596Z,32.80
2023-02-12T01:28:24.349Z,30.97
2023-02-12T01:33:29.522Z,31.63
2023-02-12T01:38:34.579Z,31.30
2023-02-12T01:43:43.514Z,31.83
2023-02-12T01:48:51.206Z,31.60
2023-02-12T01:53:58.358Z,30.63
2023-02-12T01:59:06.202Z,32.70
2023-02-12T02:04:15.644Z,33.27
2023-02-12T02:09:22.904Z,30.90
2023-02-12T02:14:36.524Z,30.63
2023-02-12T02:19:59.272Z,30.87
2023-02-12T02:25:38.906Z,29.07
2023-02-12T02:30:56.448Z,30.30
2023-02-12T02:36:13.236Z,29.77
2023-02-12T02:41:22.774Z,30.27
2023-02-12T02:46:35.402Z,30.40
2023-02-12T02:51:46.246Z,29.37
2023-02-12T02:56:58.183Z,29.17
2023-02-12T03:02:12.132Z,30.83
2023-02-12T03:07:22.933Z,29.40
2023-02-12T03:12:34.339Z,29.13
2023-02-12T03:17:47.426Z,30.37
2023-02-12T03:22:57.017Z,28.03
2023-02-12T03:28:07.565Z,28.90
2023-02-12T03:33:23.224Z,26.70
2023-02-12T03:38:37.438Z,27.63
2023-02-12T03:43:51.674Z,27.73
2023-02-12T03:49:06.423Z,27.80
2023-02-12T03:54:18.572Z,28.57
2023-02-12T03:59:25.115Z,27.17
2023-02-12T04:04:35.330Z,27.20
2023-02-12T04:09:42.895Z,27.07
2023-02-12T04:14:55.696Z,27.40
2023-02-12T04:20:15.548Z,25.77
2023-02-12T04:25:32.947Z,26.77
2023-02-12T04:30:45.646Z,26.07
2023-02-12T04:35:58.066Z,25.53
2023-02-12T04:41:03.275Z,25.00
2023-02-12T04:46:12.573Z,26.27
2023-02-12T04:51:20.418Z,26.27
2023-02-12T04:56:25.314Z,27.07
2023-02-12T05:01:31.447Z,27.50
2023-02-12T05:06:44.489Z,26.33
2023-02-12T05:11:51.511Z,27.30
2023-02-12T05:16:56.460Z,29.33
2023-02-12T05:22:04.179Z,28.80
2023-02-12T05:27:09.243Z,27.87
2023-02-12T05:32:14.324Z,29.63
2023-02-12T05:37:21.823Z,29.03
2023-02-12T05:42:26.828Z,29.73
2023-02-12T05:47:33.836Z,29.80
2023-02-12T05:52:43.649Z,28.40
2023-02-12T05:57:48.585Z,29.23
2023-02-12T06:02:53.715Z,29.17
2023-02-12T06:08:02.701Z,28.90
2023-02-12T06:13:13.480Z,28.67
2023-02-12T06:18:18.393Z,28.17
2023-02-12T06:23:27.276Z,30.87
2023-02-12T06:28:32.237Z,30.23
2023-02-12T06:33:38.361Z,30.33
2023-02-12T06:38:46.319Z,29.83
2023-02-12T06:43:53.356Z,30.53
2023-02-12T06:48:59.151Z,28.40
2023-02-12T06:54:06.956Z,27.33
2023-02-12T06:59:16.984Z,27.43
2023-02-12T07:04:21.871Z,28.33
2023-02-12T07:09:29.811Z,29.10
2023-02-12T07:14:34.714Z,27.40
2023-02-12T07:19:42.168Z,28.00
2023-02-12T07:24:50.816Z,25.83
2023-02-12T07:29:55.954Z,27.97
2023-02-12T07:35:00.935Z,26.43
2023-02-12T07:40:10.644Z,26.93
2023-02-12T07:45:20.280Z,27.60
2023-02-12T07:50:28.221Z,26.63
2023-02-12T07:55:37.910Z,27.93
2023-02-12T08:00:42.863Z,25.90
2023-02-12T08:05:47.908Z,26.23
2023-02-12T08:11:02.647Z,26.10
2023-02-12T08:16:14.903Z,25.50
2023-02-12T08:21:22.147Z,25.30
2023-02-12T08:26:34.354Z,25.50
2023-02-12T08:31:46.566Z,25.93
2023-02-12T08:36:54.193Z,23.80
2023-02-12T08:42:03.364Z,24.27
2023-02-12T08:47:10.215Z,23.37
2023-02-12T08:52:15.548Z,22.03
2023-02-12T08:57:24.253Z,23.70
2023-02-12T09:02:29.223Z,21.97
2023-02-12T09:07:36.895Z,22.57
2023-02-12T09:12:48.543Z,22.93
2023-02-12T09:17:54.478Z,23.87
2023-02-12T09:23:00.781Z,22.87
2023-02-12T09:28:09.219Z,25.60
2023-02-12T09:33:15.458Z,25.60
2023-02-12T09:38:20.598Z,25.00
2023-02-12T09:43:37.209Z,23.80
2023-02-12T09:49:01.252Z,22.13
2023-02-12T09:54:09.223Z,20.13
2023-02-12T09:59:24.575Z,21.30
2023-02-12T10:04:31.210Z,20.07
2023-02-12T10:09:54.973Z,18.37
2023-02-12T10:15:30.056Z,19.57
2023-02-12T10:20:51.048Z,20.97
2023-02-12T10:25:57.942Z,20.17
2023-02-12T10:31:10.693Z,19.23
2023-02-12T10:36:27.005Z,17.47
2023-02-12T10:41:36.923Z,17.67
2023-02-12T10:46:44.651Z,18.70
2023-02-12T10:52:17.207Z,19.70
2023-02-12T10:57:26.960Z,16.33
2023-02-12T11:02:38.035Z,16.63
2023-02-12T11:07:51.892Z,16.73
2023-02-12T11:13:00.718Z,13.30
2023-02-12T11:18:11.586Z,14.10
2023-02-12T11:23:29.894Z,13.03
2023-02-12T11:28:37.144Z,12.23
2023-02-12T11:33:45.784Z,11.93
2023-02-12T11:38:54.734Z,12.73
2023-02-12T11:44:00.174Z,11.83
2023-02-12T11:49:09.574Z,11.63
2023-02-12T11:54:25.233Z,10.83
2023-02-12T11:59:38.114Z,12.73
2023-02-12T12:04:46.829Z,11.80
2023-02-12T12:09:58.733Z,11.30
2023-02-12T12:15:21.250Z,10.23
2023-02-12T12:20:35.491Z,10.33
2023-02-12T12:25:48.226Z,10.23
2023-02-12T12:31:05.073Z,10.40
2023-02-12T12:36:38.121Z,10.57
2023-02-12T12:41:59.354Z,9.57
2023-02-12T12:47:19.484Z,9.40
2023-02-12T12:52:49.814Z,9.50
2023-02-12T12:58:04.415Z,9.43
2023-02-12T13:03:37.571Z,9.30
2023-02-12T13:09:06.795Z,7.07
2023-02-12T13:14:28.141Z,8.03
2023-02-12T13:19:46.980Z,7.30
2023-02-12T13:25:00.772Z,8.63
2023-02-12T13:30:10.532Z,8.00
2023-02-12T13:35:23.656Z,8.83
2023-02-12T13:40:43.242Z,8.47
2023-02-12T13:45:56.990Z,8.17
2023-02-12T13:51:11.695Z,9.77
2023-02-12T13:56:32.331Z,9.90
2023-02-12T14:01:43.316Z,9.60
2023-02-12T14:06:59.727Z,9.90
2023-02-12T14:12:10.218Z,10.07
2023-02-12T14:17:45.555Z,8.60
2023-02-12T14:23:04.112Z,9.30
2023-02-12T14:28:30.373Z,9.40
2023-02-12T14:33:35.953Z,8.03
2023-02-12T14:39:03.658Z,9.83
2023-02-12T14:44:50.209Z,9.00
2023-02-12T14:49:58.197Z,9.00
2023-02-12T14:55:08.154Z,9.37
2023-02-12T15:00:26.770Z,9.20
2023-02-12T15:05:35.423Z,10.00
2023-02-12T15:10:45.902Z,8.70
2023-02-12T15:16:01.187Z,9.80
2023-02-12T15:21:17.142Z,8.67
2023-02-12T15:26:34.285Z,10.13
2023-02-12T15:31:42.345Z,9.53
2023-02-12T15:36:49.609Z,8.70
2023-02-12T15:41:55.912Z,10.03
2023-02-12T15:47:06.566Z,8.67
2023-02-12T15:52:14.662Z,8.50
2023-02-12T15:57:27.334Z,9.70
2023-02-12T16:02:38.240Z,10.20
2023-02-12T16:07:46.337Z,9.37
2023-02-12T16:12:53.231Z,9.70
2023-02-12T16:18:04.550Z,10.73
2023-02-12T16:23:10.307Z,10.93
2023-02-12T16:28:30.291Z,12.13
2023-02-12T16:33:51.412Z,11.20
2023-02-12T16:39:00.460Z,13.27
2023-02-12T16:44:29.802Z,13.17
2023-02-12T16:49:37.937Z,13.63
2023-02-12T16:54:42.879Z,14.17
2023-02-12T16:59:47.925Z,15.30
2023-02-12T17:05:01.033Z,14.83
2023-02-12T17:10:06.372Z,14.67
2023-02-12T17:15:19.022Z,16.03
2023-02-12T17:20:26.615Z,15.73
2023-02-12T17:25:32.015Z,16.03
2023-02-12T17:30:37.821Z,14.53
2023-02-12T17:35:45.600Z,14.27
2023-02-12T17:40:53.519Z,15.53
2023-02-12T17:45:59.652Z,15.17
2023-02-12T17:51:09.567Z,16.07
2023-02-12T17:56:15.073Z,15.20
2023-02-12T18:01:25.475Z,16.73
2023-02-12T18:06:34.514Z,14.87
2023-02-12T18:11:42.294Z,15.27
2023-02-12T18:16:47.465Z,15.27
2023-02-12T18:21:55.161Z,16.10
2023-02-12T18:27:08.530Z,14.93
2023-02-12T18:32:18.151Z,17.00
2023-02-12T18:37:27.539Z,17.97
2023-02-12T18:42:33.506Z,17.40
2023-02-12T18:47:38.627Z,19.40
2023-02-12T18:52:46.508Z,20.10
2023-02-12T18:57:52.205Z,18.63
2023-02-12T19:02:57.191Z,20.20
2023-02-12T19:08:04.819Z,19.60
2023-02-12T19:13:09.974Z,18.73
2023-02-12T19:18:16.568Z,18.17
2023-02-12T19:23:24.590Z,19.53
2023-02-12T19:28:32.747Z,17.70
2023-02-12T19:33:39.203Z,19.57
2023-02-12T19:38:48.267Z,19.27
2023-02-12T19:43:56.328Z,19.37
2023-02-12T19:49:10.000Z,22.63
2023-02-12T19:54:24.151Z,23.03
2023-02-12T19:59:30.637Z,21.23
2023-02-12T20:04:37.181Z,19.00
2023-02-12T20:09:45.178Z,19.80
2023-02-12T20:14:51.217Z,19.87
2023-02-12T20:19:58.778Z,22.43
2023-02-12T20:25:09.474Z,21.67
2023-02-12T20:30:16.070Z,20.67
2023-02-12T20:35:24.808Z,23.77
2023-02-12T20:40:34.968Z,21.07
2023-02-12T20:45:42.633Z,21.43
2023-02-12T20:50:47.733Z,22.33
2023-02-12T20:55:56.796Z,22.30
2023-02-12T21:01:12.639Z,20.07
2023-02-12T21:06:22.957Z,19.00
2023-02-12T21:11:33.809Z,19.50
2023-02-12T21:16:41.211Z,20.30
2023-02-12T21:21:48.228Z,19.93
2023-02-12T21:26:57.674Z,20.93
2023-02-12T21:32:04.418Z,19.03
2023-02-12T21:37:10.883Z,19.37
2023-02-12T21:42:18.562Z,18.67
2023-02-12T21:47:23.428Z,18.77
2023-02-12T21:52:30.806Z,18.40
2023-02-12T21:57:40.741Z,20.30
2023-02-12T22:02:45.775Z,18.47
2023-02-12T22:07:54.426Z,18.60
2023-02-12T22:13:04.491Z,19.27
2023-02-12T22:18:09.357Z,18.40
2023-02-12T22:23:16.661Z,17.70
2023-02-12T22:28:26.407Z,18.23
2023-02-12T22:33:31.484Z,17.57
2023-02-12T22:38:40.657Z,18.33
2023-02-12T22:43:48.250Z,17.10
2023-02-12T22:48:53.278Z,17.57
2023-02-12T22:54:00.020Z,15.23
2023-02-12T22:59:09.259Z,15.20
2023-02-12T23:04:20.315Z,15.00
2023-02-12T23:09:25.328Z,12.83
2023-02-12T23:14:35.134Z,13.67
2023-02-12T23:19:44.336Z,13.20
2023-02-12T23:24:51.003Z,12.27
2023-02-12T23:29:59.009Z,12.80
2023-02-12T23:35:05.998Z,12.17
2023-02-12T23:40:13.117Z,13.13
2023-02-12T23:45:21.024Z,14.30
2023-02-12T23:50:26.484Z,15.60
2023-02-12T23:55:35.050Z,16.07
